Time;durP1;ratioP1;P1;durP2;ratioP2;P2;SDS_P1;SDS_P2;PMS_P1;PMS_P2;Temp;Humidity;BMP_temperature;BMP_pressure;BME280_temperature;BME280_humidity;BME280_pressure;Samples;Min_cycle;Max_cycle;Signal;HPM_P1;HPM_P2
2022/11/09 00:00:06;;;;;;;15.50;9.00;;;;;;;;;;5072391;28;20059;-64
2022/11/09 00:02:32;;;;;;;15.63;9.20;;;;;;;;;;5072188;28;20535;-63
2022/11/09 00:04:58;;;;;;;16.13;8.65;;;;;;;;;;5053040;28;20112;-63
2022/11/09 00:07:24;;;;;;;15.82;9.18;;;;;;;;;;5072236;28;20435;-64
2022/11/09 00:09:50;;;;;;;17.40;8.88;;;;;;;;;;5072210;28;20025;-64
2022/11/09 00:12:16;;;;;;;15.70;8.75;;;;;;;;;;5085266;28;20428;-63
2022/11/09 00:14:42;;;;;;;14.60;8.68;;;;;;;;;;5073830;28;20021;-63
2022/11/09 00:17:08;;;;;;;16.95;8.77;;;;;;;;;;5071839;28;20021;-64
2022/11/09 00:19:34;;;;;;;14.95;8.60;;;;;;;;;;5072043;28;20016;-64
2022/11/09 00:22:00;;;;;;;15.82;8.80;;;;;;;;;;5054537;28;20025;-64
2022/11/09 00:24:26;;;;;;;16.00;8.90;;;;;;;;;;5091555;28;20024;-64
2022/11/09 00:26:52;;;;;;;16.05;9.18;;;;;;;;;;5092146;28;20046;-64
2022/11/09 00:29:18;;;;;;;17.50;8.98;;;;;;;;;;5092120;28;20028;-66
2022/11/09 00:31:44;;;;;;;14.50;8.82;;;;;;;;;;5094173;28;20032;-66
2022/11/09 00:34:10;;;;;;;14.88;8.50;;;;;;;;;;5098154;28;20448;-65
2022/11/09 00:36:36;;;;;;;15.98;8.95;;;;;;;;;;5098784;28;20032;-64
2022/11/09 00:39:02;;;;;;;14.27;8.85;;;;;;;;;;5098582;28;20031;-64
2022/11/09 00:41:28;;;;;;;14.57;8.90;;;;;;;;;;5097609;28;20091;-63
2022/11/09 00:43:54;;;;;;;14.55;8.77;;;;;;;;;;5098020;28;20062;-64
2022/11/09 00:46:20;;;;;;;14.23;8.63;;;;;;;;;;5098551;28;20031;-64
2022/11/09 00:48:46;;;;;;;14.73;8.63;;;;;;;;;;5095629;28;20024;-64
2022/11/09 00:51:12;;;;;;;16.17;8.73;;;;;;;;;;5098350;28;20099;-63
2022/11/09 00:53:38;;;;;;;14.20;8.60;;;;;;;;;;5096689;28;20048;-67
2022/11/09 00:56:11;;;;;;;15.70;9.02;;;;;;;;;;5095529;28;20026;-63
2022/11/09 00:58:38;;;;;;;14.80;8.73;;;;;;;;;;5098705;28;20441;-65
2022/11/09 01:01:25;;;;;;;14.32;8.30;;;;;;;;;;5098557;28;20024;-63
2022/11/09 01:03:50;;;;;;;15.50;8.88;;;;;;;;;;5097856;28;20669;-64
2022/11/09 01:06:19;;;;;;;16.20;9.10;;;;;;;;;;5098433;28;20024;-63
2022/11/09 01:08:45;;;;;;;14.57;8.15;;;;;;;;;;5098788;28;20066;-63
2022/11/09 01:11:12;;;;;;;15.20;8.90;;;;;;;;;;5099599;28;20113;-64
2022/11/09 01:13:38;;;;;;;15.05;8.73;;;;;;;;;;5098812;28;20024;-64
2022/11/09 01:16:08;;;;;;;15.27;8.65;;;;;;;;;;5099648;28;20028;-65
2022/11/09 01:18:34;;;;;;;14.75;8.90;;;;;;;;;;5099684;28;20024;-64
2022/11/09 01:21:01;;;;;;;14.10;8.88;;;;;;;;;;5097358;28;20035;-64
2022/11/09 01:23:27;;;;;;;15.90;9.13;;;;;;;;;;5096942;28;20085;-64
2022/11/09 01:26:00;;;;;;;15.15;8.63;;;;;;;;;;5097939;28;20028;-64
2022/11/09 01:28:27;;;;;;;17.55;8.57;;;;;;;;;;5096857;28;20063;-64
2022/11/09 01:30:53;;;;;;;14.43;8.90;;;;;;;;;;5098187;28;20106;-64
2022/11/09 01:33:19;;;;;;;14.88;8.73;;;;;;;;;;5096252;28;20188;-64
2022/11/09 01:35:45;;;;;;;15.52;8.80;;;;;;;;;;5098377;28;20111;-64
2022/11/09 01:38:12;;;;;;;14.63;8.52;;;;;;;;;;5096846;28;20059;-63
2022/11/09 01:40:38;;;;;;;13.90;8.50;;;;;;;;;;5097169;28;20039;-65
2022/11/09 01:43:14;;;;;;;15.20;8.93;;;;;;;;;;5093836;28;20028;-64
2022/11/09 01:45:41;;;;;;;14.38;8.80;;;;;;;;;;5094618;28;20031;-64
2022/11/09 01:48:19;;;;;;;14.60;8.88;;;;;;;;;;5092946;28;20032;-64
2022/11/09 01:50:52;;;;;;;14.70;8.82;;;;;;;;;;5093541;28;20028;-64
2022/11/09 01:53:23;;;;;;;16.70;9.55;;;;;;;;;;5094058;28;20407;-64
2022/11/09 01:55:51;;;;;;;15.13;9.05;;;;;;;;;;5092993;28;20028;-64
2022/11/09 01:58:20;;;;;;;14.52;8.95;;;;;;;;;;5094708;28;20020;-64
2022/11/09 02:00:47;;;;;;;14.23;8.63;;;;;;;;;;5094643;28;20109;-64
2022/11/09 02:03:33;;;;;;;14.45;9.13;;;;;;;;;;5092627;28;20055;-64
2022/11/09 02:06:00;;;;;;;16.02;9.50;;;;;;;;;;5076069;28;20123;-64
2022/11/09 02:08:26;;;;;;;15.55;9.10;;;;;;;;;;5094554;28;20024;-64
2022/11/09 02:10:55;;;;;;;15.85;9.07;;;;;;;;;;5094468;28;20039;-64
2022/11/09 02:13:21;;;;;;;;;;;;;;;;;;5094197;28;20043;-64
2022/11/09 02:15:48;;;;;;;16.48;8.90;;;;;;;;;;5094113;28;19904;-64
2022/11/09 02:18:14;;;;;;;15.95;9.20;;;;;;;;;;5075218;28;20484;-64
2022/11/09 02:20:58;;;;;;;16.67;9.27;;;;;;;;;;5056066;28;20040;-64
2022/11/09 02:23:25;;;;;;;14.55;9.10;;;;;;;;;;5073422;28;20025;-64
2022/11/09 02:25:56;;;;;;;15.30;9.20;;;;;;;;;;5077896;28;20028;-64
2022/11/09 02:28:23;;;;;;;14.88;8.93;;;;;;;;;;5092751;28;20024;-64
2022/11/09 02:30:52;;;;;;;16.10;9.13;;;;;;;;;;5092848;28;20373;-64
2022/11/09 02:33:18;;;;;;;14.90;9.10;;;;;;;;;;5091963;28;20081;-64
2022/11/09 02:35:44;;;;;;;15.93;8.80;;;;;;;;;;5092698;28;20031;-64
2022/11/09 02:38:11;;;;;;;14.73;8.30;;;;;;;;;;5092493;28;20032;-63
2022/11/09 02:40:39;;;;;;;15.82;8.80;;;;;;;;;;5093801;28;20024;-64
2022/11/09 02:43:07;;;;;;;16.02;9.20;;;;;;;;;;5092904;28;20081;-64
2022/11/09 02:45:33;;;;;;;15.70;9.00;;;;;;;;;;5092845;28;20622;-63
2022/11/09 02:47:58;;;;;;;15.57;8.85;;;;;;;;;;5091591;28;20249;-64
2022/11/09 02:50:25;;;;;;;15.20;9.00;;;;;;;;;;5093645;28;20099;-61
2022/11/09 02:52:51;;;;;;;14.32;8.57;;;;;;;;;;5093495;28;20023;-63
2022/11/09 02:55:17;;;;;;;15.40;8.60;;;;;;;;;;5092546;28;20028;-64
2022/11/09 02:57:43;;;;;;;14.30;8.60;;;;;;;;;;5093551;28;20653;-63
2022/11/09 03:00:09;;;;;;;16.33;8.70;;;;;;;;;;5092486;28;20039;-63
2022/11/09 03:02:35;;;;;;;16.45;9.18;;;;;;;;;;5093238;28;20385;-64
2022/11/09 03:05:01;;;;;;;15.18;8.73;;;;;;;;;;5092633;28;20031;-64
2022/11/09 03:07:27;;;;;;;14.23;8.40;;;;;;;;;;5093324;28;20040;-64
2022/11/09 03:09:53;;;;;;;14.80;8.88;;;;;;;;;;5093478;28;20031;-64
2022/11/09 03:12:29;;;;;;;18.00;9.00;;;;;;;;;;5093415;28;20730;-64
2022/11/09 03:14:56;;;;;;;14.80;8.48;;;;;;;;;;5091326;28;20028;-64
2022/11/09 03:17:22;;;;;;;14.70;8.80;;;;;;;;;;5093093;28;20422;-64
2022/11/09 03:19:48;;;;;;;15.95;8.60;;;;;;;;;;5093176;28;20077;-64
2022/11/09 03:22:14;;;;;;;13.98;8.10;;;;;;;;;;5091843;28;20024;-64
2022/11/09 03:24:40;;;;;;;14.55;8.60;;;;;;;;;;5092061;28;20028;-63
2022/11/09 03:27:06;;;;;;;16.08;8.90;;;;;;;;;;5083680;28;20047;-63
2022/11/09 03:29:32;;;;;;;16.20;8.65;;;;;;;;;;5072891;28;20031;-63
2022/11/09 03:31:58;;;;;;;16.15;8.90;;;;;;;;;;5072888;28;20444;-63
2022/11/09 03:34:24;;;;;;;15.77;8.50;;;;;;;;;;5054049;28;20028;-64
2022/11/09 03:36:50;;;;;;;19.35;9.00;;;;;;;;;;5084527;28;20024;-63
2022/11/09 03:39:16;;;;;;;14.50;8.70;;;;;;;;;;5092691;28;20365;-63
2022/11/09 03:41:42;;;;;;;15.80;8.48;;;;;;;;;;5092779;28;20089;-64
2022/11/09 03:44:08;;;;;;;15.73;8.80;;;;;;;;;;5090841;28;20024;-63
2022/11/09 03:46:34;;;;;;;16.13;8.65;;;;;;;;;;5092311;28;20158;-66
2022/11/09 03:49:00;;;;;;;16.33;8.73;;;;;;;;;;5092512;28;20024;-63
2022/11/09 03:51:26;;;;;;;16.40;8.32;;;;;;;;;;5092720;28;20035;-64
2022/11/09 03:53:52;;;;;;;15.32;8.30;;;;;;;;;;5082603;28;20028;-65
2022/11/09 03:56:18;;;;;;;18.77;8.90;;;;;;;;;;5054241;28;20503;-64
2022/11/09 03:58:44;;;;;;;15.52;8.38;;;;;;;;;;5072088;28;20024;-64
2022/11/09 04:01:10;;;;;;;17.35;9.63;;;;;;;;;;5054319;28;20031;-64
2022/11/09 04:03:36;;;;;;;14.52;8.63;;;;;;;;;;5071445;28;20558;-63
2022/11/09 04:06:03;;;;;;;14.98;8.60;;;;;;;;;;5091411;28;20037;-63
2022/11/09 04:08:29;;;;;;;17.63;8.85;;;;;;;;;;5092248;28;20024;-63
2022/11/09 04:10:55;;;;;;;17.25;9.10;;;;;;;;;;5092293;28;20388;-64
2022/11/09 04:13:21;;;;;;;15.68;8.32;;;;;;;;;;5089822;28;20057;-64
2022/11/09 04:15:47;;;;;;;15.00;8.45;;;;;;;;;;5090836;28;20024;-65
2022/11/09 04:18:14;;;;;;;15.55;8.70;;;;;;;;;;5090873;28;20027;-64
2022/11/09 04:20:40;;;;;;;16.13;8.75;;;;;;;;;;5090075;28;20020;-65
2022/11/09 04:23:07;;;;;;;15.82;9.20;;;;;;;;;;5090209;28;20031;-64
2022/11/09 04:25:34;;;;;;;16.02;8.90;;;;;;;;;;5090108;28;20103;-65
2022/11/09 04:28:01;;;;;;;15.02;9.00;;;;;;;;;;5053789;28;20502;-65
2022/11/09 04:30:28;;;;;;;15.80;8.90;;;;;;;;;;5053699;28;20024;-64
2022/11/09 04:32:54;;;;;;;16.73;8.57;;;;;;;;;;5071866;28;20154;-65
2022/11/09 04:35:20;;;;;;;17.20;8.95;;;;;;;;;;5071097;28;20078;-65
2022/11/09 04:37:54;;;;;;;17.27;8.85;;;;;;;;;;5071706;28;20522;-65
2022/11/09 04:40:20;;;;;;;17.48;9.02;;;;;;;;;;5071760;28;20021;-65
2022/11/09 04:42:46;;;;;;;17.25;9.50;;;;;;;;;;5074467;28;20032;-65
2022/11/09 04:45:12;;;;;;;18.67;9.23;;;;;;;;;;5091034;28;20035;-65
2022/11/09 04:47:38;;;;;;;17.48;9.15;;;;;;;;;;5091775;28;20032;-64
2022/11/09 04:50:05;;;;;;;19.20;8.95;;;;;;;;;;5091062;28;20393;-65
2022/11/09 04:52:31;;;;;;;18.00;9.35;;;;;;;;;;5091886;28;20054;-64
2022/11/09 04:54:57;;;;;;;15.93;8.80;;;;;;;;;;5091124;28;20029;-65
2022/11/09 04:57:23;;;;;;;17.60;9.65;;;;;;;;;;5090212;28;20047;-65
2022/11/09 04:59:49;;;;;;;17.02;9.90;;;;;;;;;;5091738;28;20070;-65
2022/11/09 05:02:15;;;;;;;17.65;9.23;;;;;;;;;;5091607;28;20020;-61
2022/11/09 05:04:41;;;;;;;18.90;9.40;;;;;;;;;;5090869;28;20024;-64
2022/11/09 05:07:07;;;;;;;19.45;10.50;;;;;;;;;;5091324;28;20020;-64
2022/11/09 05:09:33;;;;;;;16.65;9.10;;;;;;;;;;5090440;28;20464;-65
2022/11/09 05:11:59;;;;;;;16.10;9.15;;;;;;;;;;5091486;28;20046;-65
2022/11/09 05:14:25;;;;;;;16.67;9.63;;;;;;;;;;5090773;28;20430;-65
2022/11/09 05:16:51;;;;;;;16.65;9.25;;;;;;;;;;5090653;28;20028;-65
2022/11/09 05:19:17;;;;;;;17.48;9.23;;;;;;;;;;5095536;28;20090;-65
2022/11/09 05:21:42;;;;;;;16.35;9.40;;;;;;;;;;5094127;28;20028;-65
2022/11/09 05:24:08;;;;;;;15.45;9.13;;;;;;;;;;5094320;28;20050;-65
2022/11/09 05:26:35;;;;;;;15.77;9.40;;;;;;;;;;5094003;28;20028;-65
2022/11/09 05:29:03;;;;;;;19.52;9.45;;;;;;;;;;5095164;28;20459;-65
2022/11/09 05:31:29;;;;;;;17.52;9.10;;;;;;;;;;5095416;28;20082;-65
2022/11/09 05:33:55;;;;;;;19.33;8.98;;;;;;;;;;5093461;28;20052;-63
2022/11/09 05:36:22;;;;;;;15.90;9.20;;;;;;;;;;5093847;28;20019;-65
2022/11/09 05:38:48;;;;;;;17.55;9.73;;;;;;;;;;5088695;28;20028;-65
2022/11/09 05:41:14;;;;;;;16.90;9.82;;;;;;;;;;5087568;28;20063;-65
2022/11/09 05:43:40;;;;;;;20.02;9.40;;;;;;;;;;5064476;28;20025;-65
2022/11/09 05:46:07;;;;;;;16.67;9.52;;;;;;;;;;5072920;28;20032;-66
2022/11/09 05:48:33;;;;;;;17.30;9.82;;;;;;;;;;5072947;28;20070;-65
2022/11/09 05:51:03;;;;;;;16.60;9.30;;;;;;;;;;5056468;28;20043;-65
2022/11/09 05:53:29;;;;;;;17.27;9.30;;;;;;;;;;5073585;28;20029;-65
2022/11/09 05:55:55;;;;;;;15.38;9.10;;;;;;;;;;5074258;28;20032;-63
2022/11/09 05:58:21;;;;;;;16.75;9.18;;;;;;;;;;5074075;28;20400;-65
2022/11/09 06:00:47;;;;;;;17.15;9.35;;;;;;;;;;5074029;28;20032;-65
2022/11/09 06:03:13;;;;;;;16.90;9.52;;;;;;;;;;5071762;28;20027;-64
2022/11/09 06:05:40;;;;;;;16.92;9.00;;;;;;;;;;5056265;28;20028;-68
2022/11/09 06:08:07;;;;;;;20.10;9.40;;;;;;;;;;5056225;28;20370;-63
2022/11/09 06:10:33;;;;;;;17.23;9.20;;;;;;;;;;5073756;28;20411;-65
2022/11/09 06:12:59;;;;;;;19.20;10.05;;;;;;;;;;5073893;28;20024;-62
2022/11/09 06:15:25;;;;;;;16.25;9.50;;;;;;;;;;5072999;28;20032;-62
2022/11/09 06:17:52;;;;;;;15.60;9.57;;;;;;;;;;5073215;28;20100;-65
2022/11/09 06:20:18;;;;;;;18.35;9.27;;;;;;;;;;5073685;28;20399;-65
2022/11/09 06:22:44;;;;;;;15.77;8.85;;;;;;;;;;5073405;28;20111;-65
2022/11/09 06:25:10;;;;;;;17.95;9.57;;;;;;;;;;5072961;28;20031;-62
2022/11/09 06:27:36;;;;;;;17.38;9.75;;;;;;;;;;5073202;28;20081;-67
2022/11/09 06:30:02;;;;;;;14.95;8.80;;;;;;;;;;5072774;28;20027;-55
2022/11/09 06:32:28;;;;;;;16.15;9.60;;;;;;;;;;5073472;28;20024;-58
2022/11/09 06:34:54;;;;;;;16.98;9.57;;;;;;;;;;5054880;28;20500;-65
2022/11/09 06:37:20;;;;;;;16.15;9.35;;;;;;;;;;5073127;28;20017;-65
2022/11/09 06:39:47;;;;;;;18.13;10.10;;;;;;;;;;5073093;28;20388;-65
2022/11/09 06:42:13;;;;;;;16.45;9.88;;;;;;;;;;5073590;28;20025;-64
2022/11/09 06:44:39;;;;;;;20.10;9.55;;;;;;;;;;5072827;28;20032;-64
2022/11/09 06:47:05;;;;;;;15.98;9.20;;;;;;;;;;5073300;28;20480;-61
2022/11/09 06:49:31;;;;;;;18.17;9.70;;;;;;;;;;5071921;28;20028;-64
2022/11/09 06:51:57;;;;;;;19.38;9.40;;;;;;;;;;5073343;28;20040;-63
2022/11/09 06:54:23;;;;;;;17.70;9.35;;;;;;;;;;5054320;28;20422;-64
2022/11/09 06:56:49;;;;;;;16.42;9.35;;;;;;;;;;5055497;28;20032;-65
2022/11/09 06:59:15;;;;;;;16.20;9.07;;;;;;;;;;5054981;28;20027;-64
2022/11/09 07:01:41;;;;;;;17.95;9.43;;;;;;;;;;5055027;28;20020;-65
2022/11/09 07:04:07;;;;;;;18.85;9.57;;;;;;;;;;5071715;28;20527;-63
2022/11/09 07:06:33;;;;;;;18.67;9.23;;;;;;;;;;5054584;28;20560;-65
2022/11/09 07:08:59;;;;;;;19.25;8.82;;;;;;;;;;5073053;28;20068;-64
2022/11/09 07:11:25;;;;;;;18.50;9.00;;;;;;;;;;5072871;28;20031;-63
2022/11/09 07:13:51;;;;;;;16.67;9.30;;;;;;;;;;5071714;28;20099;-65
2022/11/09 07:16:17;;;;;;;18.40;8.88;;;;;;;;;;5072795;28;20020;-65
2022/11/09 07:18:44;;;;;;;18.85;9.40;;;;;;;;;;5075005;28;20047;-64
2022/11/09 07:21:10;;;;;;;17.02;8.60;;;;;;;;;;5092786;28;20659;-62
2022/11/09 07:23:36;;;;;;;16.88;8.48;;;;;;;;;;5092117;28;20024;-64
2022/11/09 07:26:03;;;;;;;16.80;9.00;;;;;;;;;;5092709;28;20032;-63
2022/11/09 07:28:29;;;;;;;21.45;9.30;;;;;;;;;;5092810;28;20107;-63
2022/11/09 07:30:57;;;;;;;17.23;8.93;;;;;;;;;;5092636;28;20047;-64
2022/11/09 07:33:23;;;;;;;18.07;8.67;;;;;;;;;;5091768;28;20026;-64
2022/11/09 07:35:50;;;;;;;17.60;8.90;;;;;;;;;;5092386;28;20024;-64
2022/11/09 07:38:18;;;;;;;17.38;9.00;;;;;;;;;;5092418;28;20463;-64
2022/11/09 07:40:44;;;;;;;16.75;8.88;;;;;;;;;;5079622;28;20047;-65
2022/11/09 07:43:11;;;;;;;15.88;8.57;;;;;;;;;;5070311;28;20116;-62
2022/11/09 07:45:37;;;;;;;17.48;8.80;;;;;;;;;;5071067;28;20021;-64
2022/11/09 07:48:07;;;;;;;18.95;9.43;;;;;;;;;;5072974;28;20050;-65
2022/11/09 07:50:34;;;;;;;16.90;9.18;;;;;;;;;;5078446;28;20024;-64
2022/11/09 07:53:00;;;;;;;15.40;8.70;;;;;;;;;;5071446;28;20024;-63
2022/11/09 07:55:27;;;;;;;16.17;8.80;;;;;;;;;;5071878;28;20083;-63
2022/11/09 07:58:00;;;;;;;17.63;9.18;;;;;;;;;;5071330;28;20056;-63
2022/11/09 08:00:27;;;;;;;16.60;9.30;;;;;;;;;;5073253;28;20477;-61
2022/11/09 08:02:53;;;;;;;18.90;9.80;;;;;;;;;;5072916;28;20032;-64
2022/11/09 08:05:20;;;;;;;18.65;9.18;;;;;;;;;;5072037;28;20025;-64
2022/11/09 08:07:46;;;;;;;15.25;9.13;;;;;;;;;;5072017;28;20045;-64
2022/11/09 08:10:12;;;;;;;16.20;8.75;;;;;;;;;;5071749;28;20029;-65
2022/11/09 08:12:38;;;;;;;15.85;9.35;;;;;;;;;;5071492;28;20019;-65
2022/11/09 08:15:05;;;;;;;15.38;9.20;;;;;;;;;;5070987;28;20051;-64
2022/11/09 08:17:31;;;;;;;16.48;9.20;;;;;;;;;;5080156;28;20533;-64
2022/11/09 08:19:57;;;;;;;15.85;9.27;;;;;;;;;;5086696;28;20056;-63
2022/11/09 08:22:23;;;;;;;18.58;9.68;;;;;;;;;;5053556;28;20071;-65
2022/11/09 08:24:49;;;;;;;17.98;9.00;;;;;;;;;;5071135;28;20477;-64
2022/11/09 08:27:15;;;;;;;16.98;9.48;;;;;;;;;;5071734;28;20024;-67
2022/11/09 08:29:41;;;;;;;18.02;9.95;;;;;;;;;;5071490;28;20465;-65
2022/11/09 08:32:07;;;;;;;17.98;9.18;;;;;;;;;;5071548;28;20049;-65
2022/11/09 08:34:33;;;;;;;17.60;9.35;;;;;;;;;;5070691;28;20021;-66
2022/11/09 08:37:01;;;;;;;20.30;9.30;;;;;;;;;;5071572;28;20078;-66
2022/11/09 08:39:27;;;;;;;20.40;9.63;;;;;;;;;;5072277;28;20081;-67
2022/11/09 08:41:53;;;;;;;20.88;9.60;;;;;;;;;;5091471;28;20119;-66
2022/11/09 08:44:19;;;;;;;17.88;9.30;;;;;;;;;;5090918;28;20395;-67
2022/11/09 08:46:45;;;;;;;18.02;8.85;;;;;;;;;;5091425;28;20123;-65
2022/11/09 08:49:12;;;;;;;20.40;10.10;;;;;;;;;;5091190;28;20028;-67
2022/11/09 08:51:38;;;;;;;17.83;9.07;;;;;;;;;;5091377;28;20073;-66
2022/11/09 08:54:03;;;;;;;16.52;9.35;;;;;;;;;;5094623;28;20536;-66
2022/11/09 08:56:29;;;;;;;19.70;9.52;;;;;;;;;;5085393;28;20036;-67
2022/11/09 08:58:55;;;;;;;19.40;9.68;;;;;;;;;;5069189;28;20020;-67
2022/11/09 09:01:21;;;;;;;19.85;9.70;;;;;;;;;;5092294;28;20050;-65
2022/11/09 09:03:47;;;;;;;18.40;9.45;;;;;;;;;;5074385;28;20119;-66
2022/11/09 09:06:13;;;;;;;16.25;8.98;;;;;;;;;;5075077;28;20112;-65
2022/11/09 09:08:39;;;;;;;24.73;10.27;;;;;;;;;;5075272;28;20029;-66
2022/11/09 09:11:06;;;;;;;17.05;9.40;;;;;;;;;;5074881;28;20058;-64
2022/11/09 09:13:32;;;;;;;18.23;10.38;;;;;;;;;;5056210;28;20025;-65
2022/11/09 09:16:07;;;;;;;21.73;9.30;;;;;;;;;;5074717;28;20025;-63
2022/11/09 09:18:33;;;;;;;17.17;8.70;;;;;;;;;;5074852;28;20080;-66
2022/11/09 09:20:59;;;;;;;17.90;9.25;;;;;;;;;;5074587;28;20427;-63
2022/11/09 09:23:25;;;;;;;18.08;9.25;;;;;;;;;;5073873;28;20033;-64
2022/11/09 09:25:51;;;;;;;19.77;9.85;;;;;;;;;;5073943;28;20028;-63
2022/11/09 09:28:17;;;;;;;18.27;8.90;;;;;;;;;;5094829;28;20526;-63
2022/11/09 09:30:43;;;;;;;18.48;9.32;;;;;;;;;;5094489;28;20476;-63
2022/11/09 09:33:10;;;;;;;19.00;8.93;;;;;;;;;;5093919;28;20142;-63
2022/11/09 09:35:36;;;;;;;16.38;9.13;;;;;;;;;;5077910;28;20365;-63
2022/11/09 09:38:02;;;;;;;19.80;9.30;;;;;;;;;;5073979;28;20043;-61
2022/11/09 09:40:36;;;;;;;17.42;9.15;;;;;;;;;;5074425;28;20029;-63
2022/11/09 09:43:02;;;;;;;19.45;9.43;;;;;;;;;;5072173;28;20056;-60
2022/11/09 09:45:31;;;;;;;22.50;9.30;;;;;;;;;;5074305;28;20429;-62
2022/11/09 09:47:57;;;;;;;19.98;9.60;;;;;;;;;;5056212;28;20480;-64
2022/11/09 09:50:36;;;;;;;16.70;9.52;;;;;;;;;;5074071;28;20031;-63
2022/11/09 09:53:02;;;;;;;;;;;;;;;;;;5073819;28;20021;-63
2022/11/09 09:55:39;;;;;;;17.80;10.02;;;;;;;;;;5055971;28;19904;-63
2022/11/09 09:58:18;;;;;;;16.08;9.68;;;;;;;;;;5073972;28;20538;-62
2022/11/09 10:00:44;;;;;;;15.10;8.90;;;;;;;;;;5073869;28;20388;-62
2022/11/09 10:03:15;;;;;;;18.38;9.27;;;;;;;;;;5072991;28;20437;-62
2022/11/09 10:05:56;;;;;;;16.35;9.15;;;;;;;;;;5072615;28;20028;-61
2022/11/09 10:08:25;;;;;;;17.55;9.40;;;;;;;;;;5055752;28;20107;-63
2022/11/09 10:11:00;;;;;;;18.95;9.32;;;;;;;;;;5073833;28;20028;-62
2022/11/09 10:13:26;;;;;;;15.02;8.60;;;;;;;;;;5073350;28;20055;-62
2022/11/09 10:15:52;;;;;;;17.63;8.90;;;;;;;;;;5055708;28;20060;-63
2022/11/09 10:18:21;;;;;;;16.45;9.10;;;;;;;;;;5055538;28;20028;-60
2022/11/09 10:20:50;;;;;;;15.10;9.18;;;;;;;;;;5073537;28;20431;-64
2022/11/09 10:23:25;;;;;;;16.67;9.45;;;;;;;;;;5073179;28;20032;-63
2022/11/09 10:25:54;;;;;;;16.88;9.20;;;;;;;;;;5073791;28;20427;-64
2022/11/09 10:28:23;;;;;;;17.38;8.55;;;;;;;;;;5073674;28;20024;-63
2022/11/09 10:30:49;;;;;;;17.52;9.25;;;;;;;;;;5055511;28;20443;-64
2022/11/09 10:33:22;;;;;;;17.00;9.00;;;;;;;;;;5072893;28;20083;-62
2022/11/09 10:36:02;;;;;;;23.10;9.55;;;;;;;;;;5059399;28;20020;-64
2022/11/09 10:38:30;;;;;;;16.13;8.82;;;;;;;;;;5092157;28;20059;-64
2022/11/09 10:41:06;;;;;;;16.65;9.50;;;;;;;;;;5076444;28;20500;-64
2022/11/09 10:43:32;;;;;;;19.58;9.90;;;;;;;;;;5072905;28;20033;-61
2022/11/09 10:45:59;;;;;;;18.73;9.40;;;;;;;;;;5073332;28;20036;-63
2022/11/09 10:48:30;;;;;;;17.10;8.40;;;;;;;;;;5073038;28;20089;-63
2022/11/09 10:50:57;;;;;;;15.82;9.27;;;;;;;;;;5072980;28;20024;-65
2022/11/09 10:53:27;;;;;;;16.38;9.30;;;;;;;;;;5072115;28;20017;-63
2022/11/09 10:55:53;;;;;;;16.02;9.35;;;;;;;;;;5072915;28;20029;-65
2022/11/09 10:58:23;;;;;;;21.00;11.05;;;;;;;;;;5072986;28;20058;-62
2022/11/09 11:01:03;;;;;;;16.10;9.65;;;;;;;;;;5072826;28;20028;-63
2022/11/09 11:03:31;;;;;;;16.40;10.80;;;;;;;;;;5072022;28;20029;-58
2022/11/09 11:05:58;;;;;;;16.98;9.90;;;;;;;;;;5072596;28;20028;-64
2022/11/09 11:08:24;;;;;;;18.83;10.68;;;;;;;;;;5072684;28;20012;-63
2022/11/09 11:10:50;;;;;;;17.77;9.75;;;;;;;;;;5082538;28;20074;-64
2022/11/09 11:13:20;;;;;;;16.48;9.98;;;;;;;;;;5090420;28;20055;-59
2022/11/09 11:15:47;;;;;;;14.85;9.40;;;;;;;;;;5090931;28;20036;-59
2022/11/09 11:18:16;;;;;;;17.60;9.93;;;;;;;;;;5091394;28;20070;-62
2022/11/09 11:20:42;;;;;;;17.50;10.00;;;;;;;;;;5091445;28;20028;-62
2022/11/09 11:23:13;;;;;;;16.63;9.55;;;;;;;;;;5091747;28;20074;-63
2022/11/09 11:25:59;;;;;;;20.02;9.95;;;;;;;;;;5092251;28;20119;-60
2022/11/09 11:28:33;;;;;;;18.15;9.50;;;;;;;;;;5078589;28;20036;-61
2022/11/09 11:30:59;;;;;;;20.40;10.35;;;;;;;;;;5092556;28;20024;-62
2022/11/09 11:33:25;;;;;;;14.90;9.57;;;;;;;;;;5091400;28;20448;-62
2022/11/09 11:35:54;;;;;;;15.95;10.02;;;;;;;;;;5092469;28;20024;-60
2022/11/09 11:38:39;;;;;;;16.50;10.30;;;;;;;;;;5097482;22;20136;-67
2022/11/09 11:41:14;;;;;;;17.00;10.43;;;;;;;;;;5063447;28;20135;-68
2022/11/09 11:43:59;;;;;;;16.67;10.50;;;;;;;;;;5031799;28;20079;-67
2022/11/09 11:46:44;;;;;;;19.85;10.48;;;;;;;;;;5032023;28;20489;-67
2022/11/09 11:49:12;;;;;;;17.63;10.73;;;;;;;;;;5050177;28;20029;-67
2022/11/09 11:51:44;;;;;;;17.08;10.75;;;;;;;;;;5032299;28;20036;-69
2022/11/09 11:54:33;;;;;;;18.58;11.68;;;;;;;;;;5049300;28;20021;-69
2022/11/09 11:57:03;;;;;;;20.73;11.18;;;;;;;;;;5032058;28;20032;-68
2022/11/09 11:59:35;;;;;;;19.25;11.25;;;;;;;;;;5049869;28;20028;-68
2022/11/09 12:02:10;;;;;;;16.90;10.15;;;;;;;;;;5050018;28;20555;-68
2022/11/09 12:05:06;;;;;;;16.73;10.23;;;;;;;;;;5031154;28;20174;-68
2022/11/09 12:07:32;;;;;;;16.92;10.40;;;;;;;;;;5016004;28;20025;-67
2022/11/09 12:09:58;;;;;;;19.02;12.05;;;;;;;;;;5048426;28;20048;-68
2022/11/09 12:12:34;;;;;;;16.50;10.32;;;;;;;;;;5048641;28;20017;-69
2022/11/09 12:15:19;;;;;;;16.58;10.75;;;;;;;;;;5029877;28;20029;-69
2022/11/09 12:17:51;;;;;;;15.90;11.10;;;;;;;;;;5048800;28;20088;-69
2022/11/09 12:20:22;;;;;;;18.13;10.75;;;;;;;;;;5048955;28;20025;-69
2022/11/09 12:23:06;;;;;;;15.95;11.35;;;;;;;;;;5046782;28;20477;-69
2022/11/09 12:25:36;;;;;;;15.45;11.00;;;;;;;;;;5049391;28;20021;-68
2022/11/09 12:28:20;;;;;;;17.98;10.98;;;;;;;;;;5048542;28;20419;-68
2022/11/09 12:30:54;;;;;;;17.05;10.30;;;;;;;;;;5049255;28;20033;-68
2022/11/09 12:33:39;;;;;;;20.58;11.07;;;;;;;;;;5030150;28;20091;-68
2022/11/09 12:36:37;;;;;;;20.30;11.25;;;;;;;;;;5047613;28;20501;-69
2022/11/09 12:39:18;;;;;;;18.40;11.73;;;;;;;;;;4976247;28;1100859;-68
2022/11/09 12:41:45;;;;;;;17.92;11.45;;;;;;;;;;5012445;28;20098;-67
2022/11/09 12:44:16;;;;;;;16.55;11.13;;;;;;;;;;5047978;28;20036;-68
2022/11/09 12:46:48;;;;;;;17.80;11.70;;;;;;;;;;5048769;28;20029;-68
2022/11/09 12:49:33;;;;;;;17.08;10.65;;;;;;;;;;5049620;28;20102;-67
2022/11/09 12:51:59;;;;;;;21.35;10.63;;;;;;;;;;5032459;28;20032;-68
2022/11/09 12:54:25;;;;;;;17.02;10.27;;;;;;;;;;5031655;28;20025;-69
2022/11/09 12:56:54;;;;;;;17.85;10.60;;;;;;;;;;5050431;28;20033;-68
2022/11/09 12:59:26;;;;;;;15.80;10.75;;;;;;;;;;5032128;28;20093;-69
2022/11/09 13:01:56;;;;;;;19.92;10.48;;;;;;;;;;5032136;28;20025;-69
2022/11/09 13:04:23;;;;;;;18.80;10.98;;;;;;;;;;5031364;28;20029;-68
2022/11/09 13:07:16;;;;;;;18.15;10.70;;;;;;;;;;5049909;28;20033;-68
2022/11/09 13:09:42;;;;;;;14.85;9.65;;;;;;;;;;5046954;28;20060;-68
2022/11/09 13:12:41;;;;;;;16.95;10.30;;;;;;;;;;5049651;28;20404;-67
2022/11/09 13:15:21;;;;;;;18.45;10.23;;;;;;;;;;5016270;28;20041;-68
2022/11/09 13:17:52;;;;;;;18.38;10.40;;;;;;;;;;5049863;28;20127;-67
2022/11/09 13:20:36;;;;;;;16.02;9.77;;;;;;;;;;5049900;28;20362;-70
2022/11/09 13:23:04;;;;;;;16.15;9.63;;;;;;;;;;5047593;28;20393;-68
2022/11/09 13:25:47;;;;;;;15.45;10.30;;;;;;;;;;5049491;28;20033;-68
2022/11/09 13:28:28;;;;;;;18.25;9.60;;;;;;;;;;5031796;28;20077;-67
2022/11/09 13:30:59;;;;;;;17.35;10.30;;;;;;;;;;5049513;28;20028;-67
2022/11/09 13:33:31;;;;;;;17.52;10.50;;;;;;;;;;5040413;28;20025;-68
2022/11/09 13:35:58;;;;;;;15.88;11.20;;;;;;;;;;5012290;28;20076;-67
2022/11/09 13:38:31;;;;;;;16.77;10.45;;;;;;;;;;5025908;28;20033;-67
2022/11/09 13:40:58;;;;;;;18.15;10.48;;;;;;;;;;5021284;28;20400;-65
2022/11/09 13:43:25;;;;;;;17.42;10.57;;;;;;;;;;5051664;28;20034;-68
2022/11/09 13:45:51;;;;;;;16.33;10.00;;;;;;;;;;5053463;28;20054;-68
2022/11/09 13:48:27;;;;;;;15.98;10.77;;;;;;;;;;5034584;28;20033;-67
2022/11/09 13:50:54;;;;;;;18.20;10.48;;;;;;;;;;5034335;28;20062;-67
2022/11/09 13:53:26;;;;;;;18.27;10.77;;;;;;;;;;5051033;28;20087;-68
2022/11/09 13:55:52;;;;;;;15.85;11.18;;;;;;;;;;5035059;28;20120;-67
2022/11/09 13:58:24;;;;;;;16.75;10.85;;;;;;;;;;5035203;28;20063;-67
2022/11/09 14:00:50;;;;;;;21.42;10.88;;;;;;;;;;5053308;28;20087;-67
2022/11/09 14:03:18;;;;;;;17.33;11.07;;;;;;;;;;5034534;28;20059;-67
2022/11/09 14:05:44;;;;;;;17.42;10.38;;;;;;;;;;5052707;28;20086;-67
2022/11/09 14:08:18;;;;;;;17.05;10.68;;;;;;;;;;5052683;28;20126;-67
2022/11/09 14:10:46;;;;;;;19.85;11.27;;;;;;;;;;5035273;28;20025;-67
2022/11/09 14:13:19;;;;;;;18.17;10.38;;;;;;;;;;5052144;28;20032;-66
2022/11/09 14:15:45;;;;;;;16.55;10.40;;;;;;;;;;5034915;28;20029;-67
2022/11/09 14:18:18;;;;;;;17.48;10.13;;;;;;;;;;5052437;28;20574;-69
2022/11/09 14:21:02;;;;;;;16.92;10.45;;;;;;;;;;5052424;28;20067;-67
2022/11/09 14:23:30;;;;;;;20.40;11.32;;;;;;;;;;5033724;28;20655;-67
2022/11/09 14:25:56;;;;;;;16.83;10.40;;;;;;;;;;5052219;28;20119;-67
2022/11/09 14:28:22;;;;;;;18.17;10.30;;;;;;;;;;5034188;28;20385;-66
2022/11/09 14:30:48;;;;;;;15.95;10.20;;;;;;;;;;5051956;28;20493;-67
2022/11/09 14:33:20;;;;;;;17.65;10.13;;;;;;;;;;5051678;28;20033;-67
2022/11/09 14:35:46;;;;;;;18.00;10.05;;;;;;;;;;5052153;28;20070;-68